Time;durP1;ratioP1;P1;durP2;ratioP2;P2;SDS_P1;SDS_P2;PMS_P1;PMS_P2;Temp;Humidity;BMP_temperature;BMP_pressure;BME280_temperature;BME280_humidity;BME280_pressure;Samples;Min_cycle;Max_cycle;Signal;HPM_P1;HPM_P2
2022/09/10 00:01:16;;;;;;;2.78;0.60;;;12.40;99.90;;;;;;5061360;28;20139;-48
2022/09/10 00:03:43;;;;;;;3.05;0.63;;;12.50;99.90;;;;;;5060183;28;20075;-46
2022/09/10 00:06:10;;;;;;;1.13;0.50;;;12.40;99.90;;;;;;5062528;28;20131;-46
2022/09/10 00:08:38;;;;;;;1.65;0.60;;;12.40;99.90;;;;;;5066797;28;20079;-46
2022/09/10 00:11:08;;;;;;;0.95;0.60;;;12.40;99.90;;;;;;5059660;28;20060;-46
2022/09/10 00:13:38;;;;;;;4.53;0.50;;;12.30;99.90;;;;;;5043872;28;20115;-47
2022/09/10 00:16:09;;;;;;;1.17;0.50;;;12.30;99.90;;;;;;5063421;28;20509;-49
2022/09/10 00:18:37;;;;;;;0.80;0.55;;;12.20;99.90;;;;;;5046265;28;20041;-46
2022/09/10 00:21:10;;;;;;;1.45;0.63;;;12.20;99.90;;;;;;5052514;28;20501;-47
2022/09/10 00:23:38;;;;;;;0.55;0.50;;;12.10;99.90;;;;;;5062808;28;20047;-47
2022/09/10 00:26:09;;;;;;;;;;;12.10;99.90;;;;;;5063637;28;20079;-48
2022/09/10 00:28:35;;;;;;;0.70;0.50;;;12.10;99.90;;;;;;5060013;28;20015;-46
2022/09/10 00:31:03;;;;;;;1.42;0.50;;;12.10;99.90;;;;;;5053945;28;20048;-46
2022/09/10 00:33:29;;;;;;;1.88;0.60;;;12.00;99.90;;;;;;5041512;28;20041;-46
2022/09/10 00:35:59;;;;;;;1.40;0.50;;;12.00;99.90;;;;;;5046291;28;20119;-46
2022/09/10 00:38:30;;;;;;;1.45;0.60;;;12.00;99.90;;;;;;5054770;28;20049;-46
2022/09/10 00:41:05;;;;;;;0.90;0.60;;;11.90;99.90;;;;;;5063411;28;20078;-45
2022/09/10 00:43:57;;;;;;;0.95;0.57;;;11.90;99.90;;;;;;5050501;28;20443;-46
2022/09/10 00:46:42;;;;;;;1.95;0.65;;;11.90;99.90;;;;;;5043243;28;20075;-46
2022/09/10 00:49:16;;;;;;;2.20;0.57;;;11.80;99.90;;;;;;5057122;28;20672;-45
2022/09/10 00:51:43;;;;;;;1.38;0.55;;;11.90;99.90;;;;;;5037468;28;20502;-46
2022/09/10 00:54:12;;;;;;;4.55;0.65;;;11.80;99.90;;;;;;5053994;28;20048;-46
2022/09/10 00:56:39;;;;;;;8.15;0.80;;;11.80;99.90;;;;;;5049377;28;20075;-47
2022/09/10 00:59:07;;;;;;;;;;;11.80;99.90;;;;;;5040824;28;20040;-46
2022/09/10 01:01:36;;;;;;;3.97;0.75;;;11.80;99.90;;;;;;5062793;28;19963;-46
2022/09/10 01:04:05;;;;;;;2.53;0.50;;;11.70;99.90;;;;;;5036478;28;20475;-45
2022/09/10 01:06:32;;;;;;;6.57;0.80;;;11.70;99.90;;;;;;5042661;28;20041;-49
2022/09/10 01:09:00;;;;;;;4.60;0.40;;;11.80;99.90;;;;;;5062316;28;20378;-46
2022/09/10 01:12:15;;;;;;;3.30;0.50;;;11.70;99.90;;;;;;5043418;28;20075;-46
2022/09/10 01:15:06;;;;;;;1.83;0.70;;;11.70;99.90;;;;;;5030771;28;20106;-47
2022/09/10 01:17:43;;;;;;;7.10;0.80;;;11.70;99.90;;;;;;5041273;28;20095;-46
2022/09/10 01:20:18;;;;;;;;;;;11.70;99.90;;;;;;5038179;28;20068;-47
2022/09/10 01:23:22;;;;;;;1.38;0.50;;;11.70;99.90;;;;;;5038184;28;19920;-46
2022/09/10 01:26:02;;;;;;;2.00;0.73;;;11.70;99.90;;;;;;5036627;28;20036;-46
2022/09/10 01:28:37;;;;;;;0.65;0.40;;;11.70;99.90;;;;;;5042781;28;20067;-46
2022/09/10 01:31:12;;;;;;;0.57;0.50;;;11.70;99.90;;;;;;5033268;28;20034;-46
2022/09/10 01:33:51;;;;;;;1.90;0.50;;;11.80;99.90;;;;;;5044452;28;20493;-46
2022/09/10 01:41:29;;;;;;;1.30;0.52;;;11.80;99.90;;;;;;5089631;28;20054;-45
2022/09/10 01:44:05;;;;;;;1.58;0.30;;;11.80;99.90;;;;;;5079133;28;20407;-45
2022/09/10 01:46:53;;;;;;;5.60;0.55;;;11.80;99.90;;;;;;5084478;28;20067;-44
2022/09/10 01:49:44;;;;;;;4.57;0.57;;;11.90;99.90;;;;;;5053455;28;20068;-44
2022/09/10 01:52:41;;;;;;;0.50;0.47;;;11.90;99.90;;;;;;5051606;28;20395;-44
2022/09/10 01:56:02;;;;;;;0.80;0.50;;;11.90;99.90;;;;;;5049619;28;20052;-44
2022/09/10 01:58:37;;;;;;;1.92;0.50;;;11.90;99.90;;;;;;4961812;28;20050;-46
2022/09/10 02:01:16;;;;;;;1.83;0.50;;;11.70;99.90;;;;;;5058075;28;20048;-44
2022/09/10 02:03:46;;;;;;;1.73;0.60;;;11.70;99.90;;;;;;5070310;28;20655;-47
2022/09/10 02:06:18;;;;;;;0.90;0.68;;;11.70;99.90;;;;;;5048014;28;20573;-44
2022/09/10 02:08:50;;;;;;;2.00;0.50;;;11.70;99.90;;;;;;5052159;28;20408;-44
2022/09/10 02:11:16;;;;;;;2.38;0.60;;;11.60;99.90;;;;;;5072781;28;20079;-44
2022/09/10 02:13:47;;;;;;;1.10;0.60;;;11.60;99.90;;;;;;5071465;28;20032;-44
2022/09/10 02:16:39;;;;;;;1.85;0.70;;;11.60;99.90;;;;;;5074625;28;20047;-45
2022/09/10 02:19:07;;;;;;;2.30;0.60;;;11.60;99.90;;;;;;5056308;28;20052;-44
2022/09/10 02:21:34;;;;;;;3.53;0.52;;;11.60;99.90;;;;;;5054867;28;20504;-45
2022/09/10 02:24:04;;;;;;;2.13;0.40;;;11.60;99.90;;;;;;5055600;28;20049;-44
2022/09/10 02:26:38;;;;;;;1.17;0.45;;;11.60;99.90;;;;;;5073145;28;20513;-46
2022/09/10 02:29:07;;;;;;;3.90;0.75;;;11.60;99.90;;;;;;5056370;28;20052;-44
2022/09/10 02:31:34;;;;;;;2.33;0.57;;;11.70;99.90;;;;;;5063828;28;20043;-44
2022/09/10 02:34:04;;;;;;;1.50;0.65;;;11.70;99.90;;;;;;5071617;28;20048;-45
2022/09/10 02:36:31;;;;;;;1.55;0.85;;;11.80;99.90;;;;;;5079737;28;20566;-44
2022/09/10 02:38:59;;;;;;;1.65;1.02;;;11.80;99.90;;;;;;5056195;28;20063;-44
2022/09/10 02:41:28;;;;;;;2.17;1.15;;;11.90;99.90;;;;;;5054201;28;20548;-44
2022/09/10 02:43:54;;;;;;;;;;;11.90;99.90;;;;;;5055973;28;20052;-44
2022/09/10 02:46:21;;;;;;;1.83;0.80;;;11.90;99.90;;;;;;5055150;28;20022;-44
2022/09/10 02:48:49;;;;;;;;;;;11.90;99.90;;;;;;5056321;28;20037;-44
2022/09/10 02:51:15;;;;;;;1.90;1.00;;;11.90;99.90;;;;;;5063667;28;19920;-44
2022/09/10 02:53:43;;;;;;;2.95;1.23;;;11.90;99.90;;;;;;5068794;28;20074;-44
2022/09/10 02:56:12;;;;;;;1.35;1.00;;;11.80;99.90;;;;;;5067185;28;20049;-44
2022/09/10 02:58:41;;;;;;;1.85;1.17;;;11.80;99.90;;;;;;5055613;28;20128;-45
2022/09/10 03:01:09;;;;;;;;;;;11.70;99.90;;;;;;5055668;28;20106;-45
2022/09/10 03:03:38;;;;;;;2.38;1.50;;;11.70;99.90;;;;;;5055407;28;19935;-44
2022/09/10 03:06:05;;;;;;;3.85;1.35;;;11.70;99.90;;;;;;5051668;28;20083;-45
2022/09/10 03:08:32;;;;;;;2.83;0.52;;;11.60;99.90;;;;;;5057432;28;20041;-44
2022/09/10 03:10:58;;;;;;;2.55;0.50;;;11.60;99.90;;;;;;5055369;28;20052;-44
2022/09/10 03:13:26;;;;;;;0.82;0.70;;;11.60;99.90;;;;;;5054799;28;20048;-45
2022/09/10 03:15:57;;;;;;;0.88;0.40;;;11.60;99.90;;;;;;5055240;28;20044;-44
2022/09/10 03:18:26;;;;;;;7.28;0.70;;;11.60;99.90;;;;;;5063016;28;20052;-45
2022/09/10 03:20:53;;;;;;;4.18;0.50;;;11.60;99.90;;;;;;5056435;28;20244;-44
2022/09/10 03:23:19;;;;;;;1.77;0.43;;;11.60;99.90;;;;;;5052174;28;20095;-44
2022/09/10 03:25:46;;;;;;;2.17;0.57;;;11.60;99.90;;;;;;5051406;28;20060;-44
2022/09/10 03:28:19;;;;;;;0.50;0.38;;;11.60;99.90;;;;;;5051867;28;20099;-44
2022/09/10 03:30:47;;;;;;;0.98;0.52;;;11.50;99.90;;;;;;5056991;28;20040;-44
2022/09/10 03:33:19;;;;;;;3.92;1.75;;;11.60;99.90;;;;;;5040452;28;20063;-44
2022/09/10 03:35:51;;;;;;;1.08;0.52;;;11.50;99.90;;;;;;5044852;28;20052;-44
2022/09/10 03:38:18;;;;;;;0.45;0.45;;;11.50;99.90;;;;;;5070810;28;20044;-44
2022/09/10 03:40:45;;;;;;;;;;;11.50;99.90;;;;;;5048352;28;20072;-44
2022/09/10 03:43:12;;;;;;;0.95;0.85;;;11.40;99.90;;;;;;5054596;28;19959;-46
2022/09/10 03:45:38;;;;;;;4.10;0.90;;;11.40;99.90;;;;;;5046348;28;20041;-45
2022/09/10 03:48:05;;;;;;;1.83;1.00;;;11.40;99.90;;;;;;5051415;28;20100;-46
2022/09/10 03:50:32;;;;;;;1.55;0.68;;;11.40;99.90;;;;;;5045576;28;20044;-46
2022/09/10 03:53:02;;;;;;;2.28;0.45;;;11.40;99.90;;;;;;5054869;28;20040;-44
2022/09/10 03:55:29;;;;;;;0.98;0.40;;;11.40;99.90;;;;;;5049668;28;20055;-44
2022/09/10 03:57:57;;;;;;;3.70;0.47;;;11.30;99.90;;;;;;5043665;28;20045;-45
2022/09/10 04:00:25;;;;;;;3.30;0.40;;;11.30;99.90;;;;;;5045956;28;20041;-45
2022/09/10 04:02:52;;;;;;;3.58;0.55;;;11.30;99.90;;;;;;5050689;28;20084;-46
2022/09/10 04:05:19;;;;;;;;;;;11.30;99.90;;;;;;5058036;28;20131;-44
2022/09/10 04:07:47;;;;;;;3.73;0.40;;;11.20;99.90;;;;;;5053553;28;20443;-44
2022/09/10 04:10:14;;;;;;;1.05;0.45;;;11.20;99.90;;;;;;5050661;28;20307;-46
2022/09/10 04:12:42;;;;;;;1.25;0.30;;;11.20;99.90;;;;;;5054171;28;20079;-44
2022/09/10 04:15:09;;;;;;;1.73;0.50;;;11.20;99.90;;;;;;5070058;28;20032;-44
2022/09/10 04:17:35;;;;;;;2.55;0.30;;;11.20;99.90;;;;;;5071743;28;20055;-45
2022/09/10 04:20:03;;;;;;;0.85;0.50;;;11.20;99.90;;;;;;5054595;28;20052;-45
2022/09/10 04:22:31;;;;;;;1.60;0.50;;;11.20;99.90;;;;;;5056925;28;20043;-44
2022/09/10 04:24:59;;;;;;;2.05;0.65;;;11.20;99.90;;;;;;5053222;28;20408;-44
2022/09/10 04:27:27;;;;;;;5.35;0.90;;;11.20;99.90;;;;;;5053454;28;20072;-47
2022/09/10 04:29:54;;;;;;;1.25;0.60;;;11.20;99.90;;;;;;5054194;28;20439;-44
2022/09/10 04:32:21;;;;;;;3.42;0.85;;;11.20;99.90;;;;;;5049709;28;20083;-44
2022/09/10 04:34:48;;;;;;;;;;;11.20;99.90;;;;;;5058385;28;20036;-44
2022/09/10 04:37:17;;;;;;;2.33;0.47;;;11.10;99.90;;;;;;5064836;28;20378;-44
2022/09/10 04:39:46;;;;;;;1.25;0.50;;;11.00;99.90;;;;;;5055579;28;20045;-44
2022/09/10 04:42:14;;;;;;;1.92;0.55;;;11.10;99.90;;;;;;5071391;28;20691;-46
2022/09/10 04:44:40;;;;;;;0.52;0.50;;;11.10;99.90;;;;;;5051758;28;20036;-47
2022/09/10 04:47:07;;;;;;;1.08;0.70;;;11.10;99.90;;;;;;5053363;28;20036;-44
2022/09/10 04:49:34;;;;;;;1.08;0.50;;;11.10;99.90;;;;;;5052605;28;20098;-46
2022/09/10 04:52:01;;;;;;;1.08;0.52;;;11.10;99.90;;;;;;5053797;28;20036;-46
2022/09/10 04:54:28;;;;;;;1.17;0.50;;;11.10;99.90;;;;;;5063640;28;20117;-45
2022/09/10 04:56:55;;;;;;;1.85;1.02;;;11.10;99.90;;;;;;5052234;28;20042;-45
2022/09/10 04:59:22;;;;;;;3.55;0.93;;;11.20;99.90;;;;;;5060165;28;20086;-44
2022/09/10 05:01:49;;;;;;;;;;;11.20;99.90;;;;;;5051856;28;20036;-44
2022/09/10 05:04:17;;;;;;;1.63;1.10;;;11.20;99.90;;;;;;5072746;28;19920;-45
2022/09/10 05:06:46;;;;;;;2.75;0.80;;;11.30;99.90;;;;;;5072471;28;20044;-46
2022/09/10 05:09:13;;;;;;;2.15;0.50;;;11.30;99.90;;;;;;5061811;28;20044;-44
2022/09/10 05:11:40;;;;;;;;;;;11.30;99.90;;;;;;5064741;28;20033;-44
2022/09/10 05:14:08;;;;;;;0.68;0.57;;;11.30;99.90;;;;;;5052719;28;19924;-46
2022/09/10 05:16:36;;;;;;;3.33;0.70;;;11.40;99.90;;;;;;5052074;28;20458;-47
2022/09/10 05:19:03;;;;;;;1.13;0.60;;;11.40;99.90;;;;;;5048072;28;20057;-45
2022/09/10 05:21:34;;;;;;;2.47;0.70;;;11.30;99.90;;;;;;5050980;28;20471;-46
2022/09/10 05:24:01;;;;;;;2.72;0.73;;;11.30;99.90;;;;;;5047744;28;20088;-44
2022/09/10 05:26:28;;;;;;;2.78;0.75;;;11.40;99.90;;;;;;5045078;28;20044;-46
2022/09/10 05:28:58;;;;;;;2.28;0.75;;;11.50;99.90;;;;;;5061171;28;20048;-44
2022/09/10 05:31:26;;;;;;;1.80;0.60;;;11.50;99.90;;;;;;5066023;28;20135;-46
2022/09/10 05:33:54;;;;;;;2.05;1.10;;;11.50;99.90;;;;;;5053213;28;20044;-48
2022/09/10 05:36:21;;;;;;;;;;;11.50;99.90;;;;;;5063735;28;20056;-44
2022/09/10 05:38:48;;;;;;;0.70;0.55;;;11.60;99.90;;;;;;5072765;28;19920;-46
2022/09/10 05:41:15;;;;;;;3.80;0.50;;;11.70;99.90;;;;;;5081119;28;20127;-45
2022/09/10 05:43:45;;;;;;;0.82;0.57;;;11.70;99.90;;;;;;5052468;28;20049;-46
2022/09/10 05:46:12;;;;;;;2.78;0.90;;;11.80;99.90;;;;;;5053610;28;20045;-45
2022/09/10 05:48:42;;;;;;;1.80;1.23;;;11.70;99.90;;;;;;5053161;28;20029;-45
2022/09/10 05:51:10;;;;;;;4.22;1.58;;;11.70;99.90;;;;;;5056003;28;20040;-46
2022/09/10 05:53:40;;;;;;;1.90;1.60;;;11.80;99.90;;;;;;5055426;28;20044;-46
2022/09/10 05:56:07;;;;;;;2.03;1.73;;;11.90;99.90;;;;;;5074412;28;20036;-44
2022/09/10 05:58:35;;;;;;;1.83;1.30;;;11.90;99.90;;;;;;5058080;28;20500;-47
2022/09/10 06:01:02;;;;;;;1.85;1.23;;;11.90;99.90;;;;;;5048430;28;20052;-46
2022/09/10 06:03:30;;;;;;;1.45;0.85;;;11.90;99.90;;;;;;5036394;28;20045;-47
2022/09/10 06:05:59;;;;;;;0.70;0.60;;;11.90;99.90;;;;;;5051891;28;20538;-46
2022/09/10 06:08:34;;;;;;;1.17;0.70;;;12.10;99.90;;;;;;5056312;28;20036;-46
2022/09/10 06:11:09;;;;;;;3.22;1.50;;;12.10;99.90;;;;;;5075663;28;20142;-47
2022/09/10 06:13:42;;;;;;;1.50;1.40;;;12.30;99.90;;;;;;5075019;28;20042;-46
2022/09/10 06:16:11;;;;;;;3.50;1.30;;;12.30;99.90;;;;;;5076495;28;20064;-46
2022/09/10 06:18:39;;;;;;;2.85;1.02;;;12.40;99.90;;;;;;5051322;28;20041;-47
2022/09/10 06:21:16;;;;;;;8.18;1.25;;;12.50;99.90;;;;;;5056149;28;20408;-47
2022/09/10 06:23:46;;;;;;;1.60;1.20;;;12.50;99.90;;;;;;5053819;28;20051;-46
2022/09/10 06:26:17;;;;;;;3.55;1.02;;;12.70;99.90;;;;;;5051496;28;20083;-46
2022/09/10 06:28:45;;;;;;;4.15;1.15;;;12.70;99.90;;;;;;5052615;28;20072;-47
2022/09/10 06:31:19;;;;;;;1.95;1.20;;;12.80;99.90;;;;;;5054192;28;20045;-46
2022/09/10 06:33:48;;;;;;;4.32;1.40;;;12.80;99.90;;;;;;5053211;28;20044;-46
2022/09/10 06:36:18;;;;;;;1.58;1.13;;;12.80;99.90;;;;;;5064204;28;20048;-46
2022/09/10 06:38:48;;;;;;;5.18;1.60;;;12.90;99.90;;;;;;5054833;28;20052;-46
2022/09/10 06:41:16;;;;;;;6.40;1.80;;;12.90;99.90;;;;;;5066952;28;20055;-46
2022/09/10 06:43:49;;;;;;;4.07;1.35;;;13.00;99.90;;;;;;5054654;28;20049;-47
2022/09/10 06:46:29;;;;;;;2.55;1.30;;;13.00;99.90;;;;;;5055151;28;20053;-46
2022/09/10 06:49:20;;;;;;;1.90;1.35;;;13.10;99.90;;;;;;5050939;28;20405;-46
2022/09/10 06:51:49;;;;;;;2.20;1.42;;;13.10;99.90;;;;;;5055715;28;20060;-46
2022/09/10 06:54:18;;;;;;;3.78;1.33;;;13.20;99.90;;;;;;5054582;28;20501;-46
2022/09/10 06:56:48;;;;;;;3.33;1.60;;;13.20;99.90;;;;;;5054057;28;20072;-46
2022/09/10 06:59:17;;;;;;;5.90;1.83;;;13.20;99.90;;;;;;5055739;28;20076;-45
2022/09/10 07:01:46;;;;;;;3.67;1.63;;;13.20;99.90;;;;;;5054562;28;20484;-46
2022/09/10 07:04:14;;;;;;;5.60;2.30;;;13.20;99.90;;;;;;5055808;28;20509;-47
2022/09/10 07:06:41;;;;;;;3.35;1.77;;;13.20;99.90;;;;;;5072229;28;20041;-46
2022/09/10 07:09:14;;;;;;;4.25;1.90;;;13.10;99.90;;;;;;5073203;28;20448;-45
2022/09/10 07:11:49;;;;;;;3.92;2.00;;;13.20;99.90;;;;;;5053641;28;20429;-46
2022/09/10 07:14:16;;;;;;;2.70;1.98;;;13.20;99.90;;;;;;5054363;28;20050;-46
2022/09/10 07:16:45;;;;;;;4.13;2.00;;;13.20;99.90;;;;;;5053947;28;20036;-46
2022/09/10 07:19:13;;;;;;;3.42;1.77;;;13.10;99.90;;;;;;5052536;28;20045;-46
2022/09/10 07:21:43;;;;;;;4.53;1.67;;;13.10;99.90;;;;;;5048215;28;20465;-45
2022/09/10 07:24:13;;;;;;;7.80;1.80;;;13.30;99.90;;;;;;5051505;28;20037;-46
2022/09/10 07:26:57;;;;;;;2.97;1.58;;;13.30;99.90;;;;;;5052067;28;20063;-46
2022/09/10 07:29:24;;;;;;;2.40;1.77;;;13.40;99.90;;;;;;5054180;28;20044;-47
2022/09/10 07:31:52;;;;;;;2.63;1.85;;;13.60;99.90;;;;;;5054271;28;20045;-46
2022/09/10 07:34:22;;;;;;;3.05;1.92;;;13.70;99.90;;;;;;5049366;28;20040;-46
2022/09/10 07:36:49;;;;;;;3.50;2.00;;;13.90;99.90;;;;;;5048344;28;20055;-46
2022/09/10 07:39:17;;;;;;;4.25;2.08;;;14.00;99.90;;;;;;5054246;28;20440;-46
2022/09/10 07:41:51;;;;;;;3.63;2.50;;;14.10;99.90;;;;;;5050625;28;20444;-47
2022/09/10 07:44:20;;;;;;;3.90;2.22;;;14.10;99.90;;;;;;5048467;28;20520;-43
2022/09/10 07:46:47;;;;;;;3.90;1.80;;;14.20;99.90;;;;;;5076811;22;20044;-47
2022/09/10 07:49:16;;;;;;;1.92;1.52;;;14.40;99.90;;;;;;5084444;28;20048;-47
2022/09/10 07:51:46;;;;;;;4.15;1.80;;;14.50;99.90;;;;;;5081577;28;20135;-47
2022/09/10 07:54:16;;;;;;;1.85;1.70;;;14.60;99.90;;;;;;5082014;28;20539;-47
2022/09/10 07:56:48;;;;;;;4.53;1.73;;;14.60;99.90;;;;;;5063390;28;20090;-47
2022/09/10 07:59:16;;;;;;;3.35;2.28;;;14.60;99.90;;;;;;5081906;28;20068;-47
2022/09/10 08:02:03;;;;;;;3.65;2.00;;;14.50;99.90;;;;;;5074445;28;20040;-46
2022/09/10 08:04:32;;;;;;;6.70;2.20;;;14.40;99.90;;;;;;5071393;28;20075;-47
2022/09/10 08:07:04;;;;;;;3.65;2.20;;;14.20;99.90;;;;;;5073667;28;20078;-47
2022/09/10 08:09:34;;;;;;;2.35;1.90;;;14.10;99.90;;;;;;5069796;28;20122;-46
2022/09/10 08:12:02;;;;;;;5.93;2.00;;;14.20;99.90;;;;;;5062017;28;20489;-47
2022/09/10 08:14:29;;;;;;;;;;;14.10;99.90;;;;;;5091558;28;20040;-48
2022/09/10 08:16:56;;;;;;;3.22;1.80;;;14.10;99.90;;;;;;5083307;28;19924;-46
2022/09/10 08:19:24;;;;;;;2.55;1.80;;;14.10;99.90;;;;;;5063174;28;20091;-46
2022/09/10 08:21:51;;;;;;;;;;;13.90;99.90;;;;;;5073877;28;20078;-46
2022/09/10 08:24:27;;;;;;;3.17;1.42;;;14.00;99.90;;;;;;5089917;28;20436;-46
2022/09/10 08:26:53;;;;;;;2.17;1.67;;;13.90;99.90;;;;;;5089550;28;20040;-46
2022/09/10 08:29:21;;;;;;;2.83;1.63;;;13.90;99.90;;;;;;5071759;28;20040;-46
2022/09/10 08:31:49;;;;;;;5.70;1.65;;;13.90;99.90;;;;;;5070490;28;20052;-46
2022/09/10 08:34:25;;;;;;;3.40;2.20;;;13.90;99.90;;;;;;5091842;28;20499;-47
2022/09/10 08:37:02;;;;;;;4.43;2.00;;;14.00;99.90;;;;;;5088401;28;20051;-47
2022/09/10 08:39:30;;;;;;;4.28;2.00;;;14.00;99.90;;;;;;5084612;28;20040;-46
2022/09/10 08:42:03;;;;;;;5.30;2.08;;;13.90;99.90;;;;;;5078655;28;20413;-46
2022/09/10 08:45:13;;;;;;;2.85;1.85;;;13.90;99.90;;;;;;5078876;28;20032;-47
2022/09/10 08:48:15;;;;;;;4.50;2.35;;;13.90;99.90;;;;;;5019854;28;20041;-47
2022/09/10 08:50:48;;;;;;;3.38;2.00;;;14.10;99.90;;;;;;5023132;28;20406;-47
2022/09/10 08:53:36;;;;;;;2.22;1.85;;;14.20;99.90;;;;;;5049966;28;20126;-49
2022/09/10 08:56:09;;;;;;;2.15;1.63;;;14.30;99.90;;;;;;5086098;28;20035;-51
2022/09/10 08:58:47;;;;;;;3.35;1.75;;;14.50;99.90;;;;;;5074756;28;20028;-47
2022/09/10 09:01:33;;;;;;;2.00;1.35;;;14.70;99.90;;;;;;5052921;28;20044;-46
2022/09/10 09:04:27;;;;;;;3.72;1.60;;;14.90;99.90;;;;;;5085068;28;20071;-48
2022/09/10 09:07:00;;;;;;;3.13;1.70;;;15.00;99.90;;;;;;5033841;28;20044;-46
2022/09/10 09:09:28;;;;;;;1.80;1.33;;;15.00;99.90;;;;;;5074796;28;20127;-46
2022/09/10 09:12:04;;;;;;;1.35;1.15;;;15.10;99.90;;;;;;5056077;28;20079;-48
2022/09/10 09:14:44;;;;;;;2.45;1.30;;;15.40;99.90;;;;;;5076844;28;20037;-47
2022/09/10 09:17:46;;;;;;;2.33;1.60;;;15.50;99.90;;;;;;5082416;28;20036;-48
2022/09/10 09:20:24;;;;;;;2.00;1.55;;;15.60;99.90;;;;;;5062634;28;20417;-46
2022/09/10 09:23:13;;;;;;;2.67;1.50;;;15.90;99.90;;;;;;5080488;28;20067;-47
2022/09/10 09:25:55;;;;;;;1.88;1.48;;;16.00;99.90;;;;;;5069682;28;20058;-47
2022/09/10 09:28:47;;;;;;;2.47;1.65;;;16.00;99.90;;;;;;5073718;28;20084;-46
2022/09/10 09:31:24;;;;;;;2.65;1.98;;;16.20;99.90;;;;;;5077506;28;20041;-46
2022/09/10 09:33:59;;;;;;;2.13;1.90;;;16.40;99.90;;;;;;5068656;28;20045;-47
2022/09/10 09:36:50;;;;;;;3.03;1.35;;;16.80;99.90;;;;;;5069903;28;20087;-46
2022/09/10 09:39:44;;;;;;;1.73;1.63;;;17.40;99.90;;;;;;5058432;28;20094;-46
2022/09/10 09:42:17;;;;;;;1.88;1.42;;;17.40;99.90;;;;;;5060041;28;20043;-48
2022/09/10 09:45:07;;;;;;;2.10;1.30;;;17.30;99.90;;;;;;5110073;28;20040;-47
2022/09/10 09:47:33;;;;;;;1.60;1.30;;;17.30;99.90;;;;;;5089437;28;20043;-47
2022/09/10 09:50:00;;;;;;;7.75;2.05;;;17.20;99.90;;;;;;5071937;28;20519;-46
2022/09/10 09:52:30;;;;;;;2.70;2.03;;;17.20;99.90;;;;;;5086020;28;20123;-48
2022/09/10 09:55:05;;;;;;;1.60;1.50;;;17.10;99.90;;;;;;5081298;28;20453;-47
2022/09/10 09:57:41;;;;;;;3.25;1.80;;;17.00;99.90;;;;;;5079728;28;20056;-47
2022/09/10 10:00:34;;;;;;;4.65;1.60;;;16.90;99.90;;;;;;5083766;28;20119;-47
2022/09/10 10:03:15;;;;;;;4.97;1.80;;;16.90;99.90;;;;;;5076229;28;20101;-46
2022/09/10 10:05:41;;;;;;;3.28;1.70;;;16.70;99.90;;;;;;5081214;28;20040;-47
2022/09/10 10:08:35;;;;;;;2.80;1.70;;;16.60;99.90;;;;;;5062170;28;20481;-47
2022/09/10 10:11:03;;;;;;;4.00;2.10;;;16.40;99.90;;;;;;5082269;28;20052;-47
2022/09/10 10:13:40;;;;;;;3.20;1.75;;;16.30;99.90;;;;;;5079378;28;20093;-46
2022/09/10 10:16:21;;;;;;;3.55;1.48;;;16.20;99.90;;;;;;5079323;28;20044;-47
2022/09/10 10:18:48;;;;;;;2.45;1.58;;;16.10;99.90;;;;;;5081304;28;20044;-46
2022/09/10 10:21:19;;;;;;;2.55;1.92;;;15.90;99.90;;;;;;5080783;28;20040;-46
2022/09/10 10:23:47;;;;;;;2.60;1.90;;;15.90;99.90;;;;;;5084282;28;20039;-46
2022/09/10 10:26:19;;;;;;;2.47;1.48;;;15.80;99.90;;;;;;5087014;28;20060;-47
2022/09/10 10:28:47;;;;;;;6.13;2.45;;;15.60;99.90;;;;;;5078899;28;20044;-46
2022/09/10 10:31:15;;;;;;;3.50;2.13;;;15.60;99.90;;;;;;5081672;28;20492;-46
2022/09/10 10:34:04;;;;;;;2.15;1.88;;;15.50;99.90;;;;;;5079863;28;20602;-46
2022/09/10 10:37:08;;;;;;;3.33;1.95;;;15.40;99.90;;;;;;5091674;28;20093;-46
2022/09/10 10:40:08;;;;;;;3.60;2.25;;;15.40;99.90;;;;;;5072225;28;20135;-47
2022/09/10 10:42:56;;;;;;;4.78;2.08;;;15.30;99.90;;;;;;5083045;28;20068;-47
2022/09/10 10:45:35;;;;;;;3.97;1.80;;;15.30;99.90;;;;;;5083624;28;20412;-46
2022/09/10 10:48:31;;;;;;;4.65;1.40;;;15.20;99.90;;;;;;5077816;28;20048;-46
2022/09/10 10:51:17;;;;;;;2.25;1.85;;;15.20;99.90;;;;;;5073087;28;20052;-47
2022/09/10 10:54:11;;;;;;;2.70;1.83;;;15.10;99.90;;;;;;5082473;28;20040;-47
2022/09/10 10:56:43;;;;;;;3.75;2.13;;;15.00;99.90;;;;;;5072136;28;20071;-47
2022/09/10 10:59:46;;;;;;;2.60;2.20;;;14.90;99.90;;;;;;5092030;28;20080;-46
2022/09/10 11:02:42;;;;;;;6.50;2.60;;;14.90;99.90;;;;;;5084679;28;20070;-46
2022/09/10 11:05:32;;;;;;;4.07;2.00;;;14.80;99.90;;;;;;5091236;28;20036;-46
2022/09/10 11:08:04;;;;;;;5.32;2.30;;;14.90;99.90;;;;;;5087400;28;20094;-46
2022/09/10 11:10:49;;;;;;;9.82;2.75;;;15.00;99.90;;;;;;5114016;28;20040;-46
2022/09/10 11:13:24;;;;;;;4.60;2.47;;;15.00;99.90;;;;;;5090389;28;20464;-46
2022/09/10 11:16:04;;;;;;;4.05;2.20;;;14.90;99.90;;;;;;5083140;28;20508;-46
2022/09/10 11:18:38;;;;;;;4.75;2.10;;;14.90;99.90;;;;;;5083912;28;20037;-46
2022/09/10 11:21:30;;;;;;;4.95;2.60;;;14.90;99.90;;;;;;5082364;28;20039;-46
2022/09/10 11:24:07;;;;;;;4.05;2.70;;;15.00;99.90;;;;;;5085360;28;20442;-46
2022/09/10 11:27:06;;;;;;;2.38;2.00;;;15.00;99.90;;;;;;5090505;28;20036;-48
2022/09/10 11:30:11;;;;;;;2.90;1.45;;;15.10;99.90;;;;;;5083882;28;20060;-46
2022/09/10 11:32:50;;;;;;;1.90;1.20;;;15.00;99.90;;;;;;5090932;28;20044;-46
2022/09/10 11:35:52;;;;;;;3.55;0.90;;;14.90;99.90;;;;;;5077707;28;20511;-46
2022/09/10 11:39:16;;;;;;;1.00;0.60;;;14.90;99.90;;;;;;5093128;28;20059;-48
2022/09/10 11:41:46;;;;;;;1.02;0.80;;;14.90;99.90;;;;;;5057472;28;20474;-47
2022/09/10 11:44:53;;;;;;;3.03;1.05;;;14.90;99.90;;;;;;5084000;28;20051;-45
2022/09/10 11:47:26;;;;;;;2.22;1.10;;;15.00;99.90;;;;;;5090296;28;20128;-46
2022/09/10 11:50:15;;;;;;;4.07;1.65;;;15.10;99.90;;;;;;5082134;28;20037;-47
2022/09/10 11:52:42;;;;;;;1.02;0.88;;;15.10;99.90;;;;;;5089144;28;20066;-48
2022/09/10 11:55:14;;;;;;;1.45;0.73;;;15.20;99.90;;;;;;5085194;28;20044;-46
2022/09/10 11:57:50;;;;;;;1.98;0.98;;;15.30;99.90;;;;;;5080383;28;20114;-46
2022/09/10 12:00:18;;;;;;;2.17;1.30;;;15.40;99.90;;;;;;5083872;28;20044;-46
2022/09/10 12:03:09;;;;;;;1.85;1.30;;;15.60;99.90;;;;;;5112930;28;20039;-46
2022/09/10 12:06:05;;;;;;;4.20;1.10;;;15.60;99.90;;;;;;5112414;28;20046;-50
2022/09/10 12:08:58;;;;;;;3.58;1.10;;;15.80;99.90;;;;;;5096836;28;20036;-47
2022/09/10 12:11:28;;;;;;;3.42;0.80;;;15.80;99.90;;;;;;5108388;28;20048;-46
2022/09/10 12:13:56;;;;;;;2.83;0.95;;;15.80;99.90;;;;;;5110838;28;20032;-47
2022/09/10 12:16:41;;;;;;;4.72;1.30;;;16.00;99.90;;;;;;5111444;28;20096;-47
2022/09/10 12:19:17;;;;;;;3.42;1.15;;;16.20;99.90;;;;;;5095635;28;20119;-47
2022/09/10 12:22:00;;;;;;;1.10;0.80;;;16.40;99.90;;;;;;5092163;28;20040;-47
2022/09/10 12:24:33;;;;;;;2.50;1.00;;;16.60;99.90;;;;;;5091298;28;20440;-46
2022/09/10 12:27:01;;;;;;;0.82;0.82;;;16.50;99.90;;;;;;5096367;28;20085;-47
2022/09/10 12:29:39;;;;;;;2.67;0.77;;;16.60;99.90;;;;;;5111159;28;20043;-47
2022/09/10 12:32:18;;;;;;;1.00;0.70;;;16.80;99.90;;;;;;5111645;28;20085;-46
2022/09/10 12:34:48;;;;;;;1.17;0.80;;;16.90;99.90;;;;;;5108874;28;20040;-49
2022/09/10 12:37:27;;;;;;;2.58;0.80;;;16.80;99.90;;;;;;5083598;28;20445;-46
2022/09/10 12:40:24;;;;;;;1.05;0.70;;;16.70;99.90;;;;;;5092116;28;20048;-46
2022/09/10 12:42:57;;;;;;;3.25;0.60;;;16.60;99.90;;;;;;5104998;28;20035;-46
2022/09/10 12:46:01;;;;;;;2.00;0.70;;;16.50;99.90;;;;;;5111921;28;20040;-49
2022/09/10 12:48:28;;;;;;;2.58;1.02;;;16.60;99.90;;;;;;5110852;28;20040;-46
2022/09/10 12:50:59;;;;;;;1.38;0.70;;;16.60;99.90;;;;;;5111368;28;20051;-47
2022/09/10 12:53:40;;;;;;;2.30;0.80;;;16.60;99.90;;;;;;5112100;28;20035;-46
2022/09/10 12:56:51;;;;;;;2.95;0.65;;;16.80;99.90;;;;;;5093102;28;20108;-46
2022/09/10 12:59:30;;;;;;;0.63;0.45;;;17.10;99.90;;;;;;5091438;28;20055;-46
2022/09/10 13:01:57;;;;;;;0.43;0.40;;;17.30;99.90;;;;;;5091454;28;20078;-47
2022/09/10 13:04:36;;;;;;;0.77;0.57;;;17.40;99.90;;;;;;5083524;28;20086;-47
2022/09/10 13:07:21;;;;;;;3.72;0.60;;;17.50;99.90;;;;;;5091339;28;20086;-47
2022/09/10 13:10:08;;;;;;;1.92;0.40;;;17.50;99.90;;;;;;5088120;28;20078;-46
2022/09/10 13:12:39;;;;;;;1.10;0.73;;;17.20;99.90;;;;;;5079875;28;20417;-46
2022/09/10 13:15:15;;;;;;;0.57;0.57;;;17.00;99.90;;;;;;5071886;28;20050;-46
2022/09/10 13:17:49;;;;;;;2.20;0.45;;;16.80;99.90;;;;;;5077617;28;20032;-46
2022/09/10 13:20:19;;;;;;;1.48;0.60;;;16.60;99.90;;;;;;5087272;28;21005;-46
2022/09/10 13:23:02;;;;;;;3.20;0.40;;;16.50;99.90;;;;;;5081517;28;20040;-47
2022/09/10 13:25:38;;;;;;;0.30;0.30;;;16.60;99.90;;;;;;5084618;28;20036;-46
2022/09/10 13:28:31;;;;;;;0.65;0.40;;;17.20;99.90;;;;;;5099232;28;20047;-47
2022/09/10 13:31:07;;;;;;;0.95;0.63;;;17.80;99.90;;;;;;5110453;28;20043;-47
2022/09/10 13:33:50;;;;;;;0.57;0.50;;;17.90;99.90;;;;;;5098740;28;20114;-47